sensor_id;sensor_type;location;lat;lon;timestamp;P1;durP1;ratioP1;P2;durP2;ratioP2
21334;SDS011;10826;52.536;13.432;2022-09-20T00:01:02;1.30;;;1.07;;
21334;SDS011;10826;52.536;13.432;2022-09-20T00:03:36;2.87;;;1.30;;
21334;SDS011;10826;52.536;13.432;2022-09-20T00:06:10;5.93;;;1.03;;
21334;SDS011;10826;52.536;13.432;2022-09-20T00:08:40;2.30;;;1.20;;
21334;SDS011;10826;52.536;13.432;2022-09-20T00:11:08;2.30;;;1.23;;
21334;SDS011;10826;52.536;13.432;2022-09-20T00:13:40;1.23;;;1.13;;
21334;SDS011;10826;52.536;13.432;2022-09-20T00:16:12;1.60;;;1.50;;
21334;SDS011;10826;52.536;13.432;2022-09-20T00:18:47;4.03;;;1.03;;
21334;SDS011;10826;52.536;13.432;2022-09-20T00:21:19;1.73;;;1.40;;
21334;SDS011;10826;52.536;13.432;2022-09-20T00:23:48;1.20;;;1.10;;
21334;SDS011;10826;52.536;13.432;2022-09-20T00:26:16;1.27;;;1.17;;
21334;SDS011;10826;52.536;13.432;2022-09-20T00:28:42;1.57;;;1.30;;
21334;SDS011;10826;52.536;13.432;2022-09-20T00:31:11;1.73;;;1.43;;
21334;SDS011;10826;52.536;13.432;2022-09-20T00:33:38;2.97;;;1.10;;
21334;SDS011;10826;52.536;13.432;2022-09-20T00:36:23;1.27;;;1.20;;
21334;SDS011;10826;52.536;13.432;2022-09-20T00:38:58;1.43;;;1.30;;
21334;SDS011;10826;52.536;13.432;2022-09-20T00:41:26;2.23;;;1.27;;
21334;SDS011;10826;52.536;13.432;2022-09-20T00:43:54;1.33;;;1.23;;
21334;SDS011;10826;52.536;13.432;2022-09-20T00:48:54;2.97;;;1.20;;
21334;SDS011;10826;52.536;13.432;2022-09-20T00:51:31;1.33;;;1.23;;
21334;SDS011;10826;52.536;13.432;2022-09-20T00:54:02;1.30;;;1.20;;
21334;SDS011;10826;52.536;13.432;2022-09-20T00:56:33;3.20;;;1.40;;
21334;SDS011;10826;52.536;13.432;2022-09-20T01:01:58;1.07;;;1.07;;
21334;SDS011;10826;52.536;13.432;2022-09-20T01:04:44;1.43;;;1.33;;
21334;SDS011;10826;52.536;13.432;2022-09-20T01:07:13;1.97;;;1.40;;
21334;SDS011;10826;52.536;13.432;2022-09-20T01:09:46;1.77;;;0.97;;
21334;SDS011;10826;52.536;13.432;2022-09-20T01:12:15;1.80;;;1.00;;
21334;SDS011;10826;52.536;13.432;2022-09-20T01:14:47;1.27;;;1.20;;
21334;SDS011;10826;52.536;13.432;2022-09-20T01:17:16;1.60;;;1.03;;
21334;SDS011;10826;52.536;13.432;2022-09-20T01:19:49;0.80;;;0.80;;
21334;SDS011;10826;52.536;13.432;2022-09-20T01:25:17;2.03;;;1.20;;
21334;SDS011;10826;52.536;13.432;2022-09-20T01:27:51;1.40;;;1.30;;
21334;SDS011;10826;52.536;13.432;2022-09-20T01:30:25;1.73;;;1.13;;
21334;SDS011;10826;52.536;13.432;2022-09-20T01:36:01;1.17;;;1.07;;
21334;SDS011;10826;52.536;13.432;2022-09-20T01:38:38;1.23;;;1.10;;
21334;SDS011;10826;52.536;13.432;2022-09-20T01:41:29;0.83;;;0.83;;
21334;SDS011;10826;52.536;13.432;2022-09-20T01:46:55;1.90;;;1.00;;
21334;SDS011;10826;52.536;13.432;2022-09-20T02:09:07;2.67;;;1.20;;
21334;SDS011;10826;52.536;13.432;2022-09-20T02:12:17;1.90;;;1.13;;
21334;SDS011;10826;52.536;13.432;2022-09-20T02:21:37;1.23;;;1.13;;
21334;SDS011;10826;52.536;13.432;2022-09-20T02:40:09;2.63;;;1.07;;
21334;SDS011;10826;52.536;13.432;2022-09-20T02:46:09;0.80;;;0.80;;
21334;SDS011;10826;52.536;13.432;2022-09-20T03:00:08;0.80;;;0.80;;
21334;SDS011;10826;52.536;13.432;2022-09-20T03:06:10;0.97;;;0.97;;
21334;SDS011;10826;52.536;13.432;2022-09-20T03:18:18;1.30;;;1.27;;
21334;SDS011;10826;52.536;13.432;2022-09-20T03:21:01;2.47;;;1.10;;
21334;SDS011;10826;52.536;13.432;2022-09-20T03:26:54;0.97;;;0.97;;
21334;SDS011;10826;52.536;13.432;2022-09-20T03:35:50;1.50;;;1.03;;
21334;SDS011;10826;52.536;13.432;2022-09-20T03:39:04;2.27;;;1.40;;
21334;SDS011;10826;52.536;13.432;2022-09-20T03:42:10;2.20;;;1.73;;
21334;SDS011;10826;52.536;13.432;2022-09-20T03:51:12;3.60;;;1.07;;
21334;SDS011;10826;52.536;13.432;2022-09-20T04:07:00;1.50;;;1.10;;
21334;SDS011;10826;52.536;13.432;2022-09-20T04:09:36;0.90;;;0.83;;
21334;SDS011;10826;52.536;13.432;2022-09-20T04:18:11;1.43;;;1.30;;
21334;SDS011;10826;52.536;13.432;2022-09-20T04:26:26;3.63;;;1.17;;
21334;SDS011;10826;52.536;13.432;2022-09-20T04:31:52;1.63;;;1.37;;
21334;SDS011;10826;52.536;13.432;2022-09-20T04:34:33;1.40;;;1.30;;
21334;SDS011;10826;52.536;13.432;2022-09-20T04:37:27;2.73;;;1.07;;
21334;SDS011;10826;52.536;13.432;2022-09-20T05:04:55;2.13;;;0.97;;
21334;SDS011;10826;52.536;13.432;2022-09-20T05:08:44;1.47;;;1.37;;
21334;SDS011;10826;52.536;13.432;2022-09-20T05:19:47;1.20;;;1.10;;
21334;SDS011;10826;52.536;13.432;2022-09-20T05:28:55;2.87;;;1.50;;
21334;SDS011;10826;52.536;13.432;2022-09-20T05:39:53;2.03;;;1.40;;
21334;SDS011;10826;52.536;13.432;2022-09-20T05:42:41;1.30;;;1.20;;
21334;SDS011;10826;52.536;13.432;2022-09-20T05:48:36;2.23;;;1.63;;
21334;SDS011;10826;52.536;13.432;2022-09-20T05:54:23;1.63;;;1.50;;
21334;SDS011;10826;52.536;13.432;2022-09-20T05:57:36;2.70;;;1.50;;
21334;SDS011;10826;52.536;13.432;2022-09-20T06:00:26;1.53;;;1.43;;
21334;SDS011;10826;52.536;13.432;2022-09-20T06:03:15;2.20;;;1.53;;
21334;SDS011;10826;52.536;13.432;2022-09-20T06:09:15;1.30;;;1.10;;
21334;SDS011;10826;52.536;13.432;2022-09-20T06:15:58;5.60;;;1.57;;
21334;SDS011;10826;52.536;13.432;2022-09-20T06:21:57;1.80;;;1.23;;
21334;SDS011;10826;52.536;13.432;2022-09-20T06:28:00;5.53;;;1.67;;
21334;SDS011;10826;52.536;13.432;2022-09-20T06:30:27;5.00;;;1.50;;
21334;SDS011;10826;52.536;13.432;2022-09-20T06:32:59;4.60;;;1.70;;
21334;SDS011;10826;52.536;13.432;2022-09-20T06:35:42;1.17;;;1.10;;
21334;SDS011;10826;52.536;13.432;2022-09-20T06:38:51;1.67;;;1.20;;
21334;SDS011;10826;52.536;13.432;2022-09-20T06:42:15;2.30;;;1.73;;
21334;SDS011;10826;52.536;13.432;2022-09-20T06:44:41;1.50;;;1.40;;
21334;SDS011;10826;52.536;13.432;2022-09-20T06:47:10;10.60;;;2.40;;
21334;SDS011;10826;52.536;13.432;2022-09-20T06:49:38;5.13;;;1.40;;
21334;SDS011;10826;52.536;13.432;2022-09-20T06:52:14;2.60;;;1.10;;
21334;SDS011;10826;52.536;13.432;2022-09-20T06:54:43;3.43;;;1.50;;
21334;SDS011;10826;52.536;13.432;2022-09-20T06:57:16;2.07;;;1.60;;
21334;SDS011;10826;52.536;13.432;2022-09-20T06:59:47;3.00;;;1.50;;
21334;SDS011;10826;52.536;13.432;2022-09-20T07:02:13;1.57;;;1.47;;
21334;SDS011;10826;52.536;13.432;2022-09-20T07:04:38;4.33;;;1.90;;
21334;SDS011;10826;52.536;13.432;2022-09-20T07:07:05;4.43;;;2.20;;
21334;SDS011;10826;52.536;13.432;2022-09-20T07:09:33;2.00;;;1.73;;
21334;SDS011;10826;52.536;13.432;2022-09-20T07:11:59;3.87;;;1.73;;
21334;SDS011;10826;52.536;13.432;2022-09-20T07:14:25;2.30;;;1.83;;
21334;SDS011;10826;52.536;13.432;2022-09-20T07:16:53;1.87;;;1.60;;
21334;SDS011;10826;52.536;13.432;2022-09-20T07:19:19;2.10;;;1.70;;
21334;SDS011;10826;52.536;13.432;2022-09-20T07:21:45;5.80;;;2.07;;
21334;SDS011;10826;52.536;13.432;2022-09-20T07:24:11;33.73;;;5.47;;
21334;SDS011;10826;52.536;13.432;2022-09-20T07:26:40;6.10;;;1.80;;
21334;SDS011;10826;52.536;13.432;2022-09-20T07:29:21;11.77;;;2.43;;
21334;SDS011;10826;52.536;13.432;2022-09-20T07:31:47;3.20;;;2.00;;
21334;SDS011;10826;52.536;13.432;2022-09-20T07:34:15;4.50;;;2.10;;
21334;SDS011;10826;52.536;13.432;2022-09-20T07:36:47;1.80;;;1.70;;
21334;SDS011;10826;52.536;13.432;2022-09-20T07:39:15;2.60;;;1.57;;
21334;SDS011;10826;52.536;13.432;2022-09-20T07:41:42;2.60;;;1.60;;
21334;SDS011;10826;52.536;13.432;2022-09-20T07:44:14;3.00;;;1.97;;
21334;SDS011;10826;52.536;13.432;2022-09-20T07:46:52;2.90;;;2.00;;
21334;SDS011;10826;52.536;13.432;2022-09-20T07:49:22;2.57;;;1.60;;
21334;SDS011;10826;52.536;13.432;2022-09-20T07:51:50;1.63;;;1.50;;
21334;SDS011;10826;52.536;13.432;2022-09-20T07:54:17;3.30;;;1.90;;
21334;SDS011;10826;52.536;13.432;2022-09-20T07:56:44;2.53;;;1.87;;
21334;SDS011;10826;52.536;13.432;2022-09-20T07:59:11;2.77;;;2.03;;
21334;SDS011;10826;52.536;13.432;2022-09-20T08:01:38;1.80;;;1.27;;
21334;SDS011;10826;52.536;13.432;2022-09-20T08:04:06;4.90;;;1.67;;
21334;SDS011;10826;52.536;13.432;2022-09-20T08:06:38;3.87;;;1.60;;
21334;SDS011;10826;52.536;13.432;2022-09-20T08:09:07;8.00;;;2.23;;
21334;SDS011;10826;52.536;13.432;2022-09-20T08:11:35;3.80;;;1.80;;
21334;SDS011;10826;52.536;13.432;2022-09-20T08:14:03;1.57;;;1.47;;
21334;SDS011;10826;52.536;13.432;2022-09-20T08:16:30;3.30;;;1.50;;
21334;SDS011;10826;52.536;13.432;2022-09-20T08:18:57;4.87;;;2.20;;
21334;SDS011;10826;52.536;13.432;2022-09-20T08:21:29;3.20;;;2.50;;
21334;SDS011;10826;52.536;13.432;2022-09-20T08:23:57;2.90;;;2.40;;
21334;SDS011;10826;52.536;13.432;2022-09-20T08:26:25;2.53;;;2.33;;
21334;SDS011;10826;52.536;13.432;2022-09-20T08:28:56;4.67;;;1.97;;
21334;SDS011;10826;52.536;13.432;2022-09-20T08:31:25;6.53;;;1.50;;
21334;SDS011;10826;52.536;13.432;2022-09-20T08:34:01;2.13;;;1.50;;
21334;SDS011;10826;52.536;13.432;2022-09-20T08:36:31;1.30;;;1.20;;
21334;SDS011;10826;52.536;13.432;2022-09-20T08:38:59;4.63;;;1.90;;
21334;SDS011;10826;52.536;13.432;2022-09-20T08:41:30;2.33;;;1.27;;
21334;SDS011;10826;52.536;13.432;2022-09-20T08:44:11;1.83;;;1.73;;
21334;SDS011;10826;52.536;13.432;2022-09-20T08:46:42;5.67;;;1.60;;
21334;SDS011;10826;52.536;13.432;2022-09-20T08:49:17;3.47;;;1.40;;
21334;SDS011;10826;52.536;13.432;2022-09-20T08:51:52;1.40;;;1.30;;
21334;SDS011;10826;52.536;13.432;2022-09-20T08:54:22;3.67;;;1.57;;
21334;SDS011;10826;52.536;13.432;2022-09-20T08:56:50;3.07;;;1.43;;
21334;SDS011;10826;52.536;13.432;2022-09-20T08:59:18;3.30;;;1.40;;
21334;SDS011;10826;52.536;13.432;2022-09-20T09:01:47;3.33;;;1.43;;
21334;SDS011;10826;52.536;13.432;2022-09-20T09:04:16;1.40;;;1.30;;
21334;SDS011;10826;52.536;13.432;2022-09-20T09:06:51;4.50;;;1.50;;
21334;SDS011;10826;52.536;13.432;2022-09-20T09:09:19;4.43;;;1.70;;
21334;SDS011;10826;52.536;13.432;2022-09-20T09:11:52;1.10;;;1.10;;
21334;SDS011;10826;52.536;13.432;2022-09-20T09:14:28;1.67;;;1.10;;
21334;SDS011;10826;52.536;13.432;2022-09-20T09:17:20;2.77;;;1.40;;
21334;SDS011;10826;52.536;13.432;2022-09-20T09:19:56;2.03;;;1.23;;
21334;SDS011;10826;52.536;13.432;2022-09-20T09:22:45;3.93;;;1.40;;
21334;SDS011;10826;52.536;13.432;2022-09-20T09:29:15;3.13;;;1.00;;
21334;SDS011;10826;52.536;13.432;2022-09-20T09:31:51;3.00;;;1.03;;
21334;SDS011;10826;52.536;13.432;2022-09-20T09:34:26;2.43;;;1.37;;
21334;SDS011;10826;52.536;13.432;2022-09-20T09:36:58;1.27;;;1.10;;
21334;SDS011;10826;52.536;13.432;2022-09-20T09:39:26;1.53;;;1.10;;
21334;SDS011;10826;52.536;13.432;2022-09-20T09:41:59;1.50;;;1.40;;
21334;SDS011;10826;52.536;13.432;2022-09-20T09:44:50;1.23;;;1.10;;
21334;SDS011;10826;52.536;13.432;2022-09-20T09:47:26;0.83;;;0.83;;
21334;SDS011;10826;52.536;13.432;2022-09-20T09:49:57;3.70;;;1.17;;
21334;SDS011;10826;52.536;13.432;2022-09-20T09:52:24;2.50;;;1.10;;
21334;SDS011;10826;52.536;13.432;2022-09-20T09:54:53;3.83;;;1.90;;
21334;SDS011;10826;52.536;13.432;2022-09-20T10:00:24;2.20;;;1.67;;
21334;SDS011;10826;52.536;13.432;2022-09-20T10:08:58;2.03;;;1.27;;
21334;SDS011;10826;52.536;13.432;2022-09-20T10:30:03;1.70;;;1.60;;
21334;SDS011;10826;52.536;13.432;2022-09-20T10:42:06;2.53;;;1.97;;
21334;SDS011;10826;52.536;13.432;2022-09-20T10:45:27;3.27;;;1.90;;
21334;SDS011;10826;52.536;13.432;2022-09-20T10:48:15;3.63;;;2.27;;
21334;SDS011;10826;52.536;13.432;2022-09-20T10:54:09;2.30;;;1.93;;
21334;SDS011;10826;52.536;13.432;2022-09-20T10:56:57;2.30;;;2.10;;
21334;SDS011;10826;52.536;13.432;2022-09-20T10:59:51;3.47;;;2.27;;
21334;SDS011;10826;52.536;13.432;2022-09-20T11:05:39;4.33;;;3.10;;
21334;SDS011;10826;52.536;13.432;2022-09-20T11:08:52;3.10;;;2.27;;
21334;SDS011;10826;52.536;13.432;2022-09-20T11:14:05;2.00;;;1.03;;
21334;SDS011;10826;52.536;13.432;2022-09-20T11:16:58;3.90;;;1.00;;
21334;SDS011;10826;52.536;13.432;2022-09-20T11:22:43;1.03;;;0.90;;
21334;SDS011;10826;52.536;13.432;2022-09-20T11:31:33;2.23;;;0.93;;
21334;SDS011;10826;52.536;13.432;2022-09-20T11:34:11;1.10;;;1.10;;
21334;SDS011;10826;52.536;13.432;2022-09-20T11:36:56;1.67;;;1.30;;
21334;SDS011;10826;52.536;13.432;2022-09-20T11:42:19;3.47;;;1.40;;
21334;SDS011;10826;52.536;13.432;2022-09-20T11:44:52;2.77;;;1.70;;
21334;SDS011;10826;52.536;13.432;2022-09-20T11:50:00;3.03;;;1.93;;
21334;SDS011;10826;52.536;13.432;2022-09-20T11:56:40;1.93;;;1.83;;
21334;SDS011;10826;52.536;13.432;2022-09-20T11:59:28;3.40;;;2.30;;
21334;SDS011;10826;52.536;13.432;2022-09-20T12:01:59;2.90;;;2.17;;
21334;SDS011;10826;52.536;13.432;2022-09-20T12:04:29;2.40;;;2.20;;
21334;SDS011;10826;52.536;13.432;2022-09-20T12:10:52;4.93;;;2.70;;
21334;SDS011;10826;52.536;13.432;2022-09-20T12:13:19;3.20;;;2.60;;
21334;SDS011;10826;52.536;13.432;2022-09-20T12:21:20;6.77;;;5.07;;
21334;SDS011;10826;52.536;13.432;2022-09-20T12:28:55;6.93;;;6.30;;
21334;SDS011;10826;52.536;13.432;2022-09-20T12:31:47;5.47;;;4.97;;
21334;SDS011;10826;52.536;13.432;2022-09-20T12:39:29;9.03;;;4.37;;
21334;SDS011;10826;52.536;13.432;2022-09-20T12:42:02;3.33;;;3.03;;
21334;SDS011;10826;52.536;13.432;2022-09-20T12:47:30;2.83;;;2.60;;
21334;SDS011;10826;52.536;13.432;2022-09-20T12:50:03;2.43;;;2.27;;
21334;SDS011;10826;52.536;13.432;2022-09-20T12:53:02;2.27;;;2.10;;
21334;SDS011;10826;52.536;13.432;2022-09-20T12:55:44;6.80;;;2.20;;
21334;SDS011;10826;52.536;13.432;2022-09-20T13:03:47;1.87;;;1.77;;
21334;SDS011;10826;52.536;13.432;2022-09-20T13:11:43;2.03;;;1.00;;
21334;SDS011;10826;52.536;13.432;2022-09-20T13:19:29;0.70;;;0.50;;
21334;SDS011;10826;52.536;13.432;2022-09-20T13:22:24;2.70;;;2.20;;
21334;SDS011;10826;52.536;13.432;2022-09-20T13:24:58;1.83;;;1.10;;
21334;SDS011;10826;52.536;13.432;2022-09-20T13:27:38;0.77;;;0.77;;
21334;SDS011;10826;52.536;13.432;2022-09-20T13:32:45;1.10;;;1.00;;
21334;SDS011;10826;52.536;13.432;2022-09-20T13:35:19;0.97;;;0.97;;
21334;SDS011;10826;52.536;13.432;2022-09-20T13:37:52;1.30;;;0.90;;
21334;SDS011;10826;52.536;13.432;2022-09-20T13:40:44;1.27;;;0.97;;
21334;SDS011;10826;52.536;13.432;2022-09-20T13:46:08;2.17;;;0.80;;
21334;SDS011;10826;52.536;13.432;2022-09-20T13:48:36;0.80;;;0.80;;
21334;SDS011;10826;52.536;13.432;2022-09-20T13:51:03;1.53;;;1.00;;
21334;SDS011;10826;52.536;13.432;2022-09-20T13:53:50;1.80;;;1.70;;
21334;SDS011;10826;52.536;13.432;2022-09-20T13:56:24;2.63;;;1.13;;
21334;SDS011;10826;52.536;13.432;2022-09-20T13:58:54;3.13;;;1.20;;
21334;SDS011;10826;52.536;13.432;2022-09-20T14:01:27;1.90;;;0.80;;
21334;SDS011;10826;52.536;13.432;2022-09-20T14:04:04;4.13;;;1.50;;
21334;SDS011;10826;52.536;13.432;2022-09-20T14:06:38;0.60;;;0.50;;
21334;SDS011;10826;52.536;13.432;2022-09-20T14:09:07;1.90;;;1.43;;
21334;SDS011;10826;52.536;13.432;2022-09-20T14:11:45;0.57;;;0.53;;
21334;SDS011;10826;52.536;13.432;2022-09-20T14:14:11;2.63;;;0.70;;
21334;SDS011;10826;52.536;13.432;2022-09-20T14:16:40;2.10;;;1.03;;
21334;SDS011;10826;52.536;13.432;2022-09-20T14:19:14;3.07;;;1.40;;
21334;SDS011;10826;52.536;13.432;2022-09-20T14:21:44;0.50;;;0.50;;
21334;SDS011;10826;52.536;13.432;2022-09-20T14:26:41;0.80;;;0.80;;
21334;SDS011;10826;52.536;13.432;2022-09-20T14:29:41;0.53;;;0.50;;
21334;SDS011;10826;52.536;13.432;2022-09-20T14:37:50;0.50;;;0.50;;
21334;SDS011;10826;52.536;13.432;2022-09-20T14:40:19;2.80;;;0.77;;
21334;SDS011;10826;52.536;13.432;2022-09-20T14:43:05;1.40;;;1.30;;
21334;SDS011;10826;52.536;13.432;2022-09-20T14:45:43;1.40;;;1.17;;
21334;SDS011;10826;52.536;13.432;2022-09-20T14:50:49;0.90;;;0.90;;
21334;SDS011;10826;52.536;13.432;2022-09-20T14:53:40;0.80;;;0.80;;
21334;SDS011;10826;52.536;13.432;2022-09-20T14:56:09;4.03;;;0.80;;
21334;SDS011;10826;52.536;13.432;2022-09-20T15:01:36;0.73;;;0.60;;
21334;SDS011;10826;52.536;13.432;2022-09-20T15:04:40;0.80;;;0.80;;
21334;SDS011;10826;52.536;13.432;2022-09-20T15:07:02;0.93;;;0.70;;
21334;SDS011;10826;52.536;13.432;2022-09-20T15:09:32;0.87;;;0.70;;
21334;SDS011;10826;52.536;13.432;2022-09-20T15:14:44;1.53;;;1.43;;
21334;SDS011;10826;52.536;13.432;2022-09-20T15:17:15;0.90;;;0.90;;
21334;SDS011;10826;52.536;13.432;2022-09-20T15:19:47;2.93;;;0.80;;
21334;SDS011;10826;52.536;13.432;2022-09-20T15:22:14;1.50;;;0.90;;
21334;SDS011;10826;52.536;13.432;2022-09-20T15:24:41;1.53;;;0.90;;
21334;SDS011;10826;52.536;13.432;2022-09-20T15:27:08;0.47;;;0.47;;
21334;SDS011;10826;52.536;13.432;2022-09-20T15:29:36;0.40;;;0.40;;
21334;SDS011;10826;52.536;13.432;2022-09-20T15:32:02;1.20;;;0.57;;
21334;SDS011;10826;52.536;13.432;2022-09-20T15:34:30;1.50;;;0.80;;
21334;SDS011;10826;52.536;13.432;2022-09-20T15:36:56;1.63;;;0.60;;
21334;SDS011;10826;52.536;13.432;2022-09-20T15:39:22;1.93;;;0.77;;
21334;SDS011;10826;52.536;13.432;2022-09-20T15:41:50;0.70;;;0.70;;
21334;SDS011;10826;52.536;13.432;2022-09-20T15:44:17;1.40;;;0.80;;
21334;SDS011;10826;52.536;13.432;2022-09-20T15:46:43;1.20;;;1.10;;
21334;SDS011;10826;52.536;13.432;2022-09-20T15:49:10;1.60;;;1.10;;
21334;SDS011;10826;52.536;13.432;2022-09-20T15:51:37;1.10;;;1.10;;
21334;SDS011;10826;52.536;13.432;2022-09-20T15:54:04;1.23;;;1.13;;
21334;SDS011;10826;52.536;13.432;2022-09-20T15:56:35;1.67;;;1.27;;
21334;SDS011;10826;52.536;13.432;2022-09-20T15:59:04;2.23;;;1.30;;
21334;SDS011;10826;52.536;13.432;2022-09-20T16:01:37;1.20;;;1.10;;
21334;SDS011;10826;52.536;13.432;2022-09-20T16:04:09;1.43;;;1.33;;
21334;SDS011;10826;52.536;13.432;2022-09-20T16:06:39;1.30;;;1.10;;
21334;SDS011;10826;52.536;13.432;2022-09-20T16:09:07;1.20;;;1.10;;
21334;SDS011;10826;52.536;13.432;2022-09-20T16:11:34;1.10;;;1.00;;
21334;SDS011;10826;52.536;13.432;2022-09-20T16:14:01;2.43;;;1.77;;
21334;SDS011;10826;52.536;13.432;2022-09-20T16:16:29;2.90;;;1.77;;
21334;SDS011;10826;52.536;13.432;2022-09-20T16:18:57;2.20;;;2.00;;
21334;SDS011;10826;52.536;13.432;2022-09-20T16:21:43;3.23;;;1.80;;
21334;SDS011;10826;52.536;13.432;2022-09-20T16:24:15;1.83;;;1.63;;
21334;SDS011;10826;52.536;13.432;2022-09-20T16:26:41;1.57;;;1.47;;
21334;SDS011;10826;52.536;13.432;2022-09-20T16:29:08;2.60;;;1.97;;
21334;SDS011;10826;52.536;13.432;2022-09-20T16:31:39;1.77;;;1.67;;
21334;SDS011;10826;52.536;13.432;2022-09-20T16:36:37;1.07;;;1.03;;
21334;SDS011;10826;52.536;13.432;2022-09-20T16:39:07;1.10;;;1.10;;
21334;SDS011;10826;52.536;13.432;2022-09-20T16:41:34;2.67;;;1.27;;
21334;SDS011;10826;52.536;13.432;2022-09-20T16:44:01;2.53;;;1.60;;
21334;SDS011;10826;52.536;13.432;2022-09-20T16:46:27;2.30;;;1.87;;
21334;SDS011;10826;52.536;13.432;2022-09-20T16:48:55;2.47;;;2.27;;
21334;SDS011;10826;52.536;13.432;2022-09-20T16:51:27;1.63;;;1.53;;
21334;SDS011;10826;52.536;13.432;2022-09-20T16:53:59;2.83;;;2.40;;
21334;SDS011;10826;52.536;13.432;2022-09-20T16:56:29;1.97;;;1.87;;
21334;SDS011;10826;52.536;13.432;2022-09-20T16:59:01;3.83;;;3.00;;
21334;SDS011;10826;52.536;13.432;2022-09-20T17:01:29;2.50;;;2.30;;
21334;SDS011;10826;52.536;13.432;2022-09-20T17:03:57;2.57;;;2.10;;
21334;SDS011;10826;52.536;13.432;2022-09-20T17:06:23;3.73;;;3.43;;
21334;SDS011;10826;52.536;13.432;2022-09-20T17:08:51;4.00;;;3.60;;
21334;SDS011;10826;52.536;13.432;2022-09-20T17:11:23;4.87;;;3.33;;
21334;SDS011;10826;52.536;13.432;2022-09-20T17:13:53;4.00;;;3.47;;
21334;SDS011;10826;52.536;13.432;2022-09-20T17:16:21;4.70;;;4.20;;
21334;SDS011;10826;52.536;13.432;2022-09-20T17:18:57;5.40;;;4.60;;
21334;SDS011;10826;52.536;13.432;2022-09-20T17:21:26;8.10;;;4.63;;
21334;SDS011;10826;52.536;13.432;2022-09-20T17:23:55;5.70;;;4.50;;
21334;SDS011;10826;52.536;13.432;2022-09-20T17:26:27;8.17;;;4.60;;
21334;SDS011;10826;52.536;13.432;2022-09-20T17:28:59;9.43;;;4.23;;
21334;SDS011;10826;52.536;13.432;2022-09-20T17:31:31;7.23;;;4.40;;
21334;SDS011;10826;52.536;13.432;2022-09-20T17:34:04;9.77;;;4.90;;
21334;SDS011;10826;52.536;13.432;2022-09-20T17:36:37;4.33;;;3.93;;
21334;SDS011;10826;52.536;13.432;2022-09-20T17:39:08;4.93;;;3.73;;
21334;SDS011;10826;52.536;13.432;2022-09-20T17:41:37;3.73;;;3.30;;
21334;SDS011;10826;52.536;13.432;2022-09-20T17:44:04;4.97;;;3.30;;
21334;SDS011;10826;52.536;13.432;2022-09-20T17:46:37;5.37;;;3.77;;
21334;SDS011;10826;52.536;13.432;2022-09-20T17:49:09;6.03;;;3.60;;
21334;SDS011;10826;52.536;13.432;2022-09-20T17:51:42;4.23;;;3.20;;
21334;SDS011;10826;52.536;13.432;2022-09-20T17:54:10;4.30;;;3.23;;
21334;SDS011;10826;52.536;13.432;2022-09-20T17:56:38;3.53;;;3.00;;
21334;SDS011;10826;52.536;13.432;2022-09-20T17:59:10;5.20;;;3.67;;
21334;SDS011;10826;52.536;13.432;2022-09-20T18:01:40;5.53;;;3.50;;
21334;SDS011;10826;52.536;13.432;2022-09-20T18:04:11;5.70;;;3.97;;
21334;SDS011;10826;52.536;13.432;2022-09-20T18:06:38;3.50;;;3.20;;
21334;SDS011;10826;52.536;13.432;2022-09-20T18:09:10;5.73;;;3.50;;
21334;SDS011;10826;52.536;13.432;2022-09-20T18:11:41;4.93;;;3.90;;
21334;SDS011;10826;52.536;13.432;2022-09-20T18:14:10;5.03;;;3.43;;
21334;SDS011;10826;52.536;13.432;2022-09-20T18:16:37;4.97;;;3.80;;
21334;SDS011;10826;52.536;13.432;2022-09-20T18:19:10;4.50;;;3.67;;
21334;SDS011;10826;52.536;13.432;2022-09-20T18:21:39;5.33;;;3.87;;
21334;SDS011;10826;52.536;13.432;2022-09-20T18:24:06;5.77;;;4.27;;
21334;SDS011;10826;52.536;13.432;2022-09-20T18:26:35;6.50;;;4.07;;
21334;SDS011;10826;52.536;13.432;2022-09-20T18:29:06;4.97;;;3.90;;
21334;SDS011;10826;52.536;13.432;2022-09-20T18:34:06;4.73;;;4.10;;
21334;SDS011;10826;52.536;13.432;2022-09-20T18:36:44;6.17;;;4.97;;
21334;SDS011;10826;52.536;13.432;2022-09-20T18:39:21;6.40;;;5.03;;
21334;SDS011;10826;52.536;13.432;2022-09-20T18:41:51;5.63;;;4.90;;
21334;SDS011;10826;52.536;13.432;2022-09-20T18:44:18;5.90;;;4.67;;
21334;SDS011;10826;52.536;13.432;2022-09-20T18:46:45;6.00;;;4.47;;
21334;SDS011;10826;52.536;13.432;2022-09-20T18:49:12;5.80;;;4.83;;
21334;SDS011;10826;52.536;13.432;2022-09-20T18:51:41;8.93;;;5.10;;
21334;SDS011;10826;52.536;13.432;2022-09-20T18:54:08;7.50;;;4.90;;
21334;SDS011;10826;52.536;13.432;2022-09-20T18:56:36;7.87;;;5.13;;
21334;SDS011;10826;52.536;13.432;2022-09-20T19:01:55;5.57;;;4.83;;
21334;SDS011;10826;52.536;13.432;2022-09-20T19:10:25;6.77;;;4.27;;
21334;SDS011;10826;52.536;13.432;2022-09-20T19:13:19;5.67;;;4.60;;
21334;SDS011;10826;52.536;13.432;2022-09-20T19:21:36;5.40;;;4.83;;
21334;SDS011;10826;52.536;13.432;2022-09-20T19:25:13;5.83;;;4.70;;
21334;SDS011;10826;52.536;13.432;2022-09-20T19:27:42;6.03;;;4.60;;
21334;SDS011;10826;52.536;13.432;2022-09-20T19:30:12;5.33;;;4.80;;
21334;SDS011;10826;52.536;13.432;2022-09-20T19:32:40;7.33;;;6.07;;
21334;SDS011;10826;52.536;13.432;2022-09-20T19:35:40;5.17;;;4.67;;
21334;SDS011;10826;52.536;13.432;2022-09-20T19:38:15;10.77;;;8.23;;
21334;SDS011;10826;52.536;13.432;2022-09-20T19:47:10;11.87;;;8.27;;
21334;SDS011;10826;52.536;13.432;2022-09-20T19:50:06;11.93;;;8.90;;
21334;SDS011;10826;52.536;13.432;2022-09-20T19:52:43;7.97;;;7.17;;
21334;SDS011;10826;52.536;13.432;2022-09-20T19:55:10;7.93;;;6.57;;
21334;SDS011;10826;52.536;13.432;2022-09-20T19:57:44;8.53;;;6.30;;
21334;SDS011;10826;52.536;13.432;2022-09-20T20:00:14;8.80;;;6.57;;
21334;SDS011;10826;52.536;13.432;2022-09-20T20:02:45;5.10;;;4.60;;
21334;SDS011;10826;52.536;13.432;2022-09-20T20:05:13;4.23;;;3.83;;
21334;SDS011;10826;52.536;13.432;2022-09-20T20:19:43;6.17;;;4.63;;
21334;SDS011;10826;52.536;13.432;2022-09-20T20:28:33;5.30;;;4.00;;
21334;SDS011;10826;52.536;13.432;2022-09-20T20:31:01;5.63;;;4.20;;
21334;SDS011;10826;52.536;13.432;2022-09-20T20:33:28;5.57;;;4.00;;
21334;SDS011;10826;52.536;13.432;2022-09-20T20:35:55;4.73;;;4.00;;
21334;SDS011;10826;52.536;13.432;2022-09-20T20:38:24;5.20;;;3.70;;
21334;SDS011;10826;52.536;13.432;2022-09-20T20:40:58;6.47;;;4.17;;
21334;SDS011;10826;52.536;13.432;2022-09-20T20:43:33;4.40;;;4.00;;
21334;SDS011;10826;52.536;13.432;2022-09-20T20:46:03;5.77;;;4.40;;
21334;SDS011;10826;52.536;13.432;2022-09-20T20:48:31;6.47;;;4.90;;
21334;SDS011;10826;52.536;13.432;2022-09-20T20:51:10;4.70;;;4.20;;
21334;SDS011;10826;52.536;13.432;2022-09-20T20:53:42;5.33;;;4.70;;
21334;SDS011;10826;52.536;13.432;2022-09-20T20:56:20;6.30;;;3.93;;
21334;SDS011;10826;52.536;13.432;2022-09-20T20:58:54;6.13;;;4.50;;
21334;SDS011;10826;52.536;13.432;2022-09-20T21:01:27;8.57;;;5.00;;
21334;SDS011;10826;52.536;13.432;2022-09-20T21:03:58;6.97;;;4.30;;
21334;SDS011;10826;52.536;13.432;2022-09-20T21:06:27;4.87;;;4.23;;
21334;SDS011;10826;52.536;13.432;2022-09-20T21:08:56;6.77;;;5.20;;
21334;SDS011;10826;52.536;13.432;2022-09-20T21:11:26;10.40;;;5.43;;
21334;SDS011;10826;52.536;13.432;2022-09-20T21:13:56;5.60;;;4.57;;
21334;SDS011;10826;52.536;13.432;2022-09-20T21:16:34;9.17;;;5.50;;
21334;SDS011;10826;52.536;13.432;2022-09-20T21:19:06;12.67;;;6.20;;
21334;SDS011;10826;52.536;13.432;2022-09-20T21:21:38;8.77;;;6.30;;
21334;SDS011;10826;52.536;13.432;2022-09-20T21:24:07;8.93;;;5.87;;